Terminal Aerodrome Forecast
Issued by NWS Knoxville/Tri Cities, TN

Current Version | Previous Version | Text Only | Print | Product List | Glossary On
Versions: 1 2 3 4 5 6 7 8 9 10 11 12
000
FTUS44 KMRX 250529
TAFCHA
TAF
KCHA 250529Z 2506/2606 00000KT P6SM SCT250
     FM251400 23003KT P6SM SCT045
     FM252000 23004KT P6SM VCTS BKN050CB
     FM260300 VRB02KT P6SM FEW080 SCT250=

USA.gov is the U.S. government's official web portal to all federal, state and local government web resources and services.